| time (UTC) | temp F | wind direction | speed knots | gust knots | rain 1hr in | rain 24hr in | rain mn in | humidity % | barometer mb |
| 20260506004517 | 74 | 327 | 2.6 | 6.1 | 0.00 | 0.00 | 0.00 | 67 | 1004.7 |
| 20260506004013 | 75 | 317 | 5.2 | 6.1 | 0.00 | 0.00 | 0.00 | 66 | 1005.2 |
| 20260506003510 | 75 | 313 | 4.3 | 7.8 | 0.00 | 0.00 | 0.00 | 66 | 1005.1 |
| 20260506003006 | 75 | 301 | 1.7 | 7.0 | 0.00 | 0.00 | 0.00 | 67 | 1005.1 |
| 20260506002502 | 75 | 321 | 6.1 | 8.7 | 0.00 | 0.00 | 0.00 | 66 | 1004.8 |
| 20260506001958 | 76 | 270 | 4.3 | 7.8 | 0.00 | 0.00 | 0.00 | 66 | 1004.7 |
| 20260506001454 | 76 | 291 | 2.6 | 5.2 | 0.00 | 0.00 | 0.00 | 65 | 1004.8 |
| 20260506000952 | 77 | 336 | 5.2 | 7.0 | 0.00 | 0.00 | 0.00 | 65 | 1004.5 |
| 20260506000449 | 77 | 320 | 2.6 | 11.3 | 0.00 | 0.00 | 0.00 | 64 | 1004.6 |
| 20260505235946 | 78 | 282 | 3.5 | 11.3 | 0.00 | 0.00 | 0.00 | 63 | 1004.4 |
| 20260505235444 | 79 | 346 | 5.2 | 7.0 | 0.00 | 0.00 | 0.00 | 62 | 1004.5 |
| 20260505234941 | 79 | 45 | 4.3 | 8.7 | 0.00 | 0.00 | 0.00 | 62 | 1004.3 |
| 20260505234438 | 79 | 351 | 4.3 | 5.2 | 0.00 | 0.00 | 0.00 | 62 | 1004.4 |
| 20260505233935 | 80 | 308 | 2.6 | 6.1 | 0.00 | 0.00 | 0.00 | 62 | 1003.9 |
| 20260505233433 | 80 | 330 | 5.2 | 7.8 | 0.00 | 0.00 | 0.00 | 62 | 1004.2 |
| 20260505232930 | 80 | 342 | 5.2 | 9.6 | 0.00 | 0.00 | 0.00 | 61 | 1004.3 |
| 20260505232428 | 81 | 325 | 3.5 | 11.3 | 0.00 | 0.00 | 0.00 | 61 | 1004.1 |
| 20260505231924 | 83 | 301 | 7.0 | 9.6 | 0.00 | 0.00 | 0.00 | 59 | 1003.8 |
| 20260505231422 | 84 | 320 | 3.5 | 9.6 | 0.00 | 0.00 | 0.00 | 55 | 1003.8 |
| 20260505230920 | 84 | 294 | 7.8 | 7.8 | 0.00 | 0.00 | 0.00 | 54 | 1003.6 |
| 20260505230417 | 84 | 295 | 3.5 | 7.8 | 0.00 | 0.00 | 0.00 | 54 | 1003.6 |
| 20260505225914 | 84 | 326 | 2.6 | 7.0 | 0.00 | 0.00 | 0.00 | 52 | 1003.5 |
| 20260505225411 | 85 | 307 | 4.3 | 7.8 | 0.00 | 0.00 | 0.00 | 51 | 1003.4 |
| 20260505224906 | 86 | 319 | 4.3 | 7.0 | 0.00 | 0.00 | 0.00 | 50 | 1003.3 |
| 20260505224404 | 86 | 324 | 2.6 | 5.2 | 0.00 | 0.00 | 0.00 | 49 | 1003.5 |
| 20260505223900 | 87 | 329 | 4.3 | 7.8 | 0.00 | 0.00 | 0.00 | 47 | 1003.3 |
| 20260505223357 | 87 | 319 | 4.3 | 7.8 | 0.00 | 0.00 | 0.00 | 46 | 1003.4 |
| 20260505222853 | 88 | 294 | 5.2 | 7.8 | 0.00 | 0.00 | 0.00 | 45 | 1002.9 |
| 20260505222350 | 91 | 313 | 4.3 | 5.2 | 0.00 | 0.00 | 0.00 | 44 | 1003.0 |
| 20260505221847 | 92 | 259 | 1.7 | 3.5 | 0.00 | 0.00 | 0.00 | 47 | 1002.7 |
| 20260505221343 | 92 | 319 | 1.7 | 2.6 | 0.00 | 0.00 | 0.00 | 46 | 1002.8 |
| 20260505220840 | 92 | 264 | 0.0 | 0.9 | 0.00 | 0.00 | 0.00 | 47 | 1002.6 |
| 20260505220337 | 92 | 212 | 0.0 | 1.7 | 0.00 | 0.00 | 0.00 | 46 | 1002.7 |
| 20260505215835 | 94 | 269 | 1.7 | 1.7 | 0.00 | 0.00 | 0.00 | 45 | 1002.7 |
| 20260505215333 | 92 | 270 | 0.9 | 0.9 | 0.00 | 0.00 | 0.00 | 46 | 1002.8 |
| 20260505214831 | 92 | 173 | 2.6 | 6.1 | 0.00 | 0.00 | 0.00 | 47 | 1002.9 |
| 20260505214328 | 92 | 239 | 0.9 | 1.7 | 0.00 | 0.00 | 0.00 | 47 | 1003.1 |
| 20260505213825 | 93 | 253 | 0.9 | 1.7 | 0.00 | 0.00 | 0.00 | 47 | 1003.0 |
| 20260505213323 | 94 | 179 | 3.5 | 3.5 | 0.00 | 0.00 | 0.00 | 45 | 1002.8 |
| 20260505212819 | 93 | 195 | 0.0 | 2.6 | 0.00 | 0.00 | 0.00 | 46 | 1002.9 |
| 20260505212316 | 92 | 163 | 3.5 | 3.5 | 0.00 | 0.00 | 0.00 | 47 | 1003.0 |
| 20260505211812 | 92 | 188 | 2.6 | 7.0 | 0.00 | 0.00 | 0.00 | 49 | 1003.2 |
| 20260505211310 | 91 | 166 | 3.5 | 8.7 | 0.00 | 0.00 | 0.00 | 50 | 1003.0 |
| 20260505210806 | 92 | 182 | 1.7 | 5.2 | 0.00 | 0.00 | 0.00 | 50 | 1003.2 |
| 20260505210303 | 92 | 134 | 1.7 | 2.6 | 0.00 | 0.00 | 0.00 | 50 | 1003.4 |
| 20260505205800 | 91 | 193 | 2.6 | 5.2 | 0.00 | 0.00 | 0.00 | 51 | 1003.3 |
| 20260505205259 | 90 | 176 | 2.6 | 5.2 | 0.00 | 0.00 | 0.00 | 53 | 1003.3 |
| 20260505204754 | 90 | 142 | 3.5 | 6.1 | 0.00 | 0.00 | 0.00 | 52 | 1003.4 |
| 20260505204253 | 89 | 137 | 2.6 | 5.2 | 0.00 | 0.00 | 0.00 | 53 | 1003.5 |
| 20260505203749 | 91 | 193 | 5.2 | 7.8 | 0.00 | 0.00 | 0.00 | 52 | 1003.8 |
| 20260505203246 | 90 | 140 | 5.2 | 7.0 | 0.00 | 0.00 | 0.00 | 52 | 1003.5 |
| 20260505202742 | 90 | 237 | 2.6 | 8.7 | 0.00 | 0.00 | 0.00 | 53 | 1003.8 |
| 20260505202239 | 90 | 189 | 3.5 | 6.1 | 0.00 | 0.00 | 0.00 | 53 | 1003.8 |
| 20260505201735 | 90 | 231 | 1.7 | 7.8 | 0.00 | 0.00 | 0.00 | 52 | 1003.9 |
| 20260505201233 | 91 | 148 | 6.1 | 9.6 | 0.00 | 0.00 | 0.00 | 52 | 1003.8 |
| 20260505200731 | 90 | 10 | 2.6 | 2.6 | 0.00 | 0.00 | 0.00 | 53 | 1003.8 |
| 20260505200228 | 90 | 192 | 3.5 | 6.1 | 0.00 | 0.00 | 0.00 | 54 | 1003.9 |
| 20260505195723 | 90 | 183 | 1.7 | 2.6 | 0.00 | 0.00 | 0.00 | 53 | 1003.9 |
| 20260505195221 | 89 | 190 | 1.7 | 7.0 | 0.00 | 0.00 | 0.00 | 54 | 1003.9 |
| 20260505194718 | 89 | 222 | 1.7 | 7.8 | 0.00 | 0.00 | 0.00 | 55 | 1003.9 |
| 20260505194214 | 88 | 196 | 3.5 | 3.5 | 0.00 | 0.00 | 0.00 | 55 | 1004.0 |
| 20260505193710 | 89 | 216 | 3.5 | 7.8 | 0.00 | 0.00 | 0.00 | 54 | 1004.1 |
| 20260505193208 | 89 | 134 | 4.3 | 7.0 | 0.00 | 0.00 | 0.00 | 54 | 1004.2 |
| 20260505192707 | 88 | 182 | 1.7 | 2.6 | 0.00 | 0.00 | 0.00 | 55 | 1004.0 |
| 20260505192203 | 87 | 162 | 3.5 | 7.8 | 0.00 | 0.00 | 0.00 | 56 | 1003.9 |
| 20260505191702 | 87 | 173 | 1.7 | 7.0 | 0.00 | 0.00 | 0.00 | 57 | 1004.0 |
| 20260505191200 | 86 | 240 | 2.6 | 7.0 | 0.00 | 0.00 | 0.00 | 58 | 1003.9 |
| 20260505190656 | 86 | 201 | 5.2 | 7.8 | 0.00 | 0.00 | 0.00 | 58 | 1004.0 |
| 20260505190155 | 87 | 175 | 4.3 | 7.0 | 0.00 | 0.00 | 0.00 | 58 | 1004.1 |
| 20260505185652 | 86 | 196 | 1.7 | 7.8 | 0.00 | 0.00 | 0.00 | 59 | 1004.1 |
| 20260505185149 | 86 | 246 | 6.1 | 7.8 | 0.00 | 0.00 | 0.00 | 58 | 1004.1 |
| 20260505184645 | 86 | 227 | 5.2 | 7.0 | 0.00 | 0.00 | 0.00 | 59 | 1004.3 |
| 20260505184142 | 86 | 222 | 4.3 | 6.1 | 0.00 | 0.00 | 0.00 | 59 | 1004.4 |
| 20260505183639 | 85 | 233 | 5.2 | 7.0 | 0.00 | 0.00 | 0.00 | 59 | 1004.3 |
| 20260505183137 | 84 | 148 | 8.7 | 9.6 | 0.00 | 0.00 | 0.00 | 61 | 1004.2 |
| 20260505182633 | 85 | 140 | 6.1 | 8.7 | 0.00 | 0.00 | 0.00 | 61 | 1004.2 |
| 20260505182130 | 86 | 206 | 5.2 | 7.0 | 0.00 | 0.00 | 0.00 | 59 | 1004.3 |
| 20260505181626 | 85 | 233 | 7.0 | 12.2 | 0.00 | 0.00 | 0.00 | 58 | 1004.4 |
| 20260505181124 | 85 | 190 | 7.0 | 13.9 | 0.00 | 0.00 | 0.00 | 60 | 1004.2 |
| 20260505180620 | 85 | 204 | 4.3 | 6.1 | 0.00 | 0.00 | 0.00 | 61 | 1004.4 |
| 20260505180117 | 85 | 187 | 3.5 | 6.1 | 0.00 | 0.00 | 0.00 | 60 | 1004.3 |
| 20260505175613 | 85 | 207 | 4.3 | 7.8 | 0.00 | 0.00 | 0.00 | 61 | 1004.4 |
| 20260505175110 | 85 | 137 | 6.1 | 11.3 | 0.00 | 0.00 | 0.00 | 61 | 1004.3 |
| 20260505174606 | 85 | 237 | 2.6 | 7.8 | 0.00 | 0.00 | 0.00 | 62 | 1004.1 |
| 20260505174102 | 84 | 189 | 3.5 | 7.8 | 0.00 | 0.00 | 0.00 | 63 | 1004.1 |
| 20260505173559 | 84 | 178 | 3.5 | 12.2 | 0.00 | 0.00 | 0.00 | 63 | 1004.3 |
| 20260505173056 | 84 | 191 | 2.6 | 6.1 | 0.00 | 0.00 | 0.00 | 62 | 1004.3 |
| 20260505172554 | 84 | 187 | 0.9 | 8.7 | 0.00 | 0.00 | 0.00 | 62 | 1004.5 |
| 20260505172050 | 84 | 159 | 6.1 | 7.0 | 0.00 | 0.00 | 0.00 | 63 | 1004.2 |
| 20260505171545 | 83 | 220 | 1.7 | 7.0 | 0.00 | 0.00 | 0.00 | 63 | 1004.4 |
| 20260505171042 | 83 | 171 | 3.5 | 8.7 | 0.00 | 0.00 | 0.00 | 65 | 1004.3 |
| 20260505170539 | 82 | 172 | 4.3 | 7.8 | 0.00 | 0.00 | 0.00 | 66 | 1004.6 |
| 20260505170036 | 82 | 134 | 7.0 | 8.7 | 0.00 | 0.00 | 0.00 | 66 | 1004.5 |
| 20260505165531 | 82 | 145 | 5.2 | 9.6 | 0.00 | 0.00 | 0.00 | 66 | 1004.5 |
| 20260505165026 | 82 | 255 | 1.7 | 7.0 | 0.00 | 0.00 | 0.00 | 66 | 1004.6 |
| 20260505164523 | 82 | 129 | 3.5 | 9.6 | 0.00 | 0.00 | 0.00 | 67 | 1004.4 |
| 20260505164021 | 82 | 149 | 2.6 | 8.7 | 0.00 | 0.00 | 0.00 | 68 | 1004.3 |
| 20260505163519 | 81 | 181 | 3.5 | 7.0 | 0.00 | 0.00 | 0.00 | 68 | 1004.4 |
| 20260505163015 | 81 | 212 | 7.8 | 11.3 | 0.00 | 0.00 | 0.00 | 69 | 1004.5 |
| 20260505162509 | 81 | 161 | 5.2 | 8.7 | 0.00 | 0.00 | 0.00 | 69 | 1004.4 |
| 20260505162006 | 81 | 204 | 5.2 | 9.6 | 0.00 | 0.00 | 0.00 | 69 | 1004.3 |
| 20260505161502 | 80 | 173 | 6.1 | 9.6 | 0.00 | 0.00 | 0.00 | 70 | 1004.4 |
| 20260505160959 | 80 | 174 | 7.0 | 11.3 | 0.00 | 0.00 | 0.00 | 70 | 1004.4 |
| 20260505160458 | 79 | 171 | 7.0 | 11.3 | 0.00 | 0.00 | 0.00 | 71 | 1004.5 |
| 20260505152934 | 78 | 191 | 4.3 | 8.7 | 0.00 | 0.00 | 0.00 | 74 | 1004.3 |
| 20260505152431 | 78 | 178 | 2.6 | 5.2 | 0.00 | 0.00 | 0.00 | 74 | 1004.2 |
| 20260505151932 | 77 | 194 | 7.0 | 9.6 | 0.00 | 0.00 | 0.00 | 74 | 1004.2 |
| 20260505151427 | 77 | 146 | 7.8 | 11.3 | 0.00 | 0.00 | 0.00 | 74 | 1004.1 |
| 20260505150925 | 78 | 165 | 3.5 | 7.0 | 0.00 | 0.00 | 0.00 | 74 | 1004.0 |
| 20260505150422 | 77 | 204 | 3.5 | 6.1 | 0.00 | 0.00 | 0.00 | 75 | 1004.6 |
| 20260505140352 | 73 | 171 | 5.2 | 11.3 | 0.00 | 0.00 | 0.00 | 80 | 1004.1 |
| 20260505124805 | 71 | 210 | 5.2 | 8.7 | 0.00 | 0.00 | 0.00 | 84 | 1003.6 |
| 20260505124302 | 71 | 111 | 7.0 | 12.2 | 0.00 | 0.00 | 0.00 | 84 | 1003.6 |
| 20260505123758 | 71 | 202 | 5.2 | 12.2 | 0.00 | 0.00 | 0.00 | 84 | 1003.8 |
| 20260505123255 | 71 | 183 | 3.5 | 6.1 | 0.00 | 0.00 | 0.00 | 84 | 1003.9 |
| 20260505122751 | 71 | 208 | 5.2 | 7.8 | 0.00 | 0.00 | 0.00 | 84 | 1003.7 |
| 20260505122249 | 71 | 180 | 4.3 | 7.8 | 0.00 | 0.00 | 0.00 | 84 | 1003.4 |
| 20260505121745 | 71 | 183 | 2.6 | 5.2 | 0.00 | 0.00 | 0.00 | 84 | 1003.4 |
| 20260505121242 | 71 | 162 | 4.3 | 11.3 | 0.00 | 0.00 | 0.00 | 84 | 1003.2 |
| 20260505120738 | 71 | 240 | 5.2 | 9.6 | 0.00 | 0.00 | 0.00 | 84 | 1003.3 |
| 20260505120234 | 71 | 196 | 5.2 | 8.7 | 0.00 | 0.00 | 0.00 | 84 | 1003.4 |
| 20260505115733 | 71 | 165 | 6.1 | 12.2 | 0.00 | 0.00 | 0.00 | 84 | 1003.1 |
| 20260505115231 | 71 | 184 | 5.2 | 9.6 | 0.00 | 0.00 | 0.00 | 84 | 1003.1 |
| 20260505114728 | 71 | 129 | 5.2 | 8.7 | 0.00 | 0.00 | 0.00 | 84 | 1003.3 |
| 20260505114224 | 71 | 185 | 7.8 | 9.6 | 0.00 | 0.00 | 0.00 | 84 | 1003.2 |
| 20260505113720 | 71 | 150 | 7.0 | 11.3 | 0.00 | 0.00 | 0.00 | 83 | 1003.2 |
| 20260505113217 | 71 | 204 | 7.0 | 8.7 | 0.00 | 0.00 | 0.00 | 83 | 1003.1 |
| 20260505112714 | 71 | 148 | 4.3 | 7.8 | 0.00 | 0.00 | 0.00 | 83 | 1003.3 |
| 20260505112212 | 71 | 177 | 3.5 | 11.3 | 0.00 | 0.00 | 0.00 | 83 | 1003.1 |
| 20260505111711 | 71 | 154 | 5.2 | 8.7 | 0.00 | 0.00 | 0.00 | 83 | 1003.0 |
| 20260505111207 | 71 | 183 | 7.0 | 8.7 | 0.00 | 0.00 | 0.00 | 83 | 1003.0 |
| 20260505110703 | 72 | 191 | 3.5 | 8.7 | 0.00 | 0.00 | 0.00 | 83 | 1003.0 |
| 20260505110201 | 72 | 140 | 3.5 | 6.1 | 0.00 | 0.00 | 0.00 | 83 | 1003.1 |
| 20260505102137 | 72 | 180 | 6.1 | 9.6 | 0.00 | 0.00 | 0.00 | 82 | 1003.2 |
| 20260505101635 | 72 | 170 | 4.3 | 7.0 | 0.00 | 0.00 | 0.00 | 82 | 1002.9 |
| 20260505101131 | 72 | 215 | 3.5 | 7.0 | 0.00 | 0.00 | 0.00 | 82 | 1003.2 |
| 20260505100627 | 72 | 158 | 7.8 | 12.2 | 0.00 | 0.00 | 0.00 | 82 | 1003.1 |
| 20260505100124 | 72 | 231 | 4.3 | 8.7 | 0.00 | 0.00 | 0.00 | 82 | 1003.4 |
| 20260505095620 | 72 | 233 | 3.5 | 9.6 | 0.00 | 0.00 | 0.00 | 82 | 1003.3 |
| 20260505095117 | 72 | 218 | 3.5 | 8.7 | 0.00 | 0.00 | 0.00 | 82 | 1003.2 |
| 20260505094614 | 72 | 148 | 3.5 | 11.3 | 0.00 | 0.00 | 0.00 | 82 | 1003.3 |
| 20260505094110 | 72 | 212 | 4.3 | 7.8 | 0.00 | 0.00 | 0.00 | 81 | 1003.4 |
| 20260505093606 | 72 | 187 | 4.3 | 11.3 | 0.00 | 0.00 | 0.00 | 81 | 1003.3 |
| 20260505093104 | 72 | 210 | 5.2 | 8.7 | 0.00 | 0.00 | 0.00 | 81 | 1003.5 |
| 20260505092601 | 72 | 176 | 7.0 | 9.6 | 0.00 | 0.00 | 0.00 | 81 | 1003.4 |
| 20260505092100 | 72 | 172 | 7.0 | 11.3 | 0.00 | 0.00 | 0.00 | 81 | 1003.5 |
| 20260505091556 | 72 | 206 | 3.5 | 9.6 | 0.00 | 0.00 | 0.00 | 81 | 1003.7 |
| 20260505091054 | 72 | 165 | 5.2 | 11.3 | 0.00 | 0.00 | 0.00 | 81 | 1003.5 |
| 20260505090552 | 72 | 173 | 5.2 | 11.3 | 0.00 | 0.00 | 0.00 | 81 | 1003.6 |
| 20260505090050 | 72 | 194 | 7.0 | 11.3 | 0.00 | 0.00 | 0.00 | 81 | 1003.7 |
| 20260505085547 | 72 | 171 | 7.8 | 7.8 | 0.00 | 0.00 | 0.00 | 81 | 1003.8 |
| 20260505085045 | 72 | 190 | 3.5 | 7.0 | 0.00 | 0.00 | 0.00 | 81 | 1003.7 |
| 20260505084543 | 72 | 156 | 5.2 | 9.6 | 0.00 | 0.00 | 0.00 | 81 | 1003.7 |
| 20260505084041 | 72 | 207 | 5.2 | 9.6 | 0.00 | 0.00 | 0.00 | 80 | 1003.7 |
| 20260505083538 | 72 | 189 | 7.8 | 11.3 | 0.00 | 0.00 | 0.00 | 80 | 1003.8 |
| 20260505083034 | 72 | 153 | 3.5 | 7.8 | 0.00 | 0.00 | 0.00 | 80 | 1003.8 |
| 20260505082530 | 72 | 183 | 3.5 | 8.7 | 0.00 | 0.00 | 0.00 | 80 | 1003.6 |
| 20260505082027 | 72 | 166 | 7.8 | 11.3 | 0.00 | 0.00 | 0.00 | 80 | 1003.9 |
| 20260505081523 | 72 | 179 | 4.3 | 7.0 | 0.00 | 0.00 | 0.00 | 80 | 1003.8 |
| 20260505081021 | 72 | 130 | 9.6 | 13.0 | 0.00 | 0.00 | 0.00 | 80 | 1003.8 |
| 20260505080517 | 72 | 177 | 7.8 | 11.3 | 0.00 | 0.00 | 0.00 | 80 | 1003.8 |
| 20260505080014 | 73 | 172 | 6.1 | 9.6 | 0.00 | 0.00 | 0.00 | 79 | 1003.7 |
| 20260505075509 | 73 | 201 | 7.0 | 9.6 | 0.00 | 0.00 | 0.00 | 79 | 1004.0 |
| 20260505075007 | 73 | 123 | 7.8 | 11.3 | 0.00 | 0.00 | 0.00 | 79 | 1003.9 |
| 20260505074504 | 73 | 166 | 3.5 | 8.7 | 0.00 | 0.00 | 0.00 | 79 | 1004.0 |
| 20260505074001 | 73 | 208 | 6.1 | 8.7 | 0.00 | 0.00 | 0.00 | 78 | 1004.1 |
| 20260505073458 | 73 | 199 | 3.5 | 6.1 | 0.00 | 0.00 | 0.00 | 78 | 1004.4 |
| 20260505072955 | 73 | 104 | 4.3 | 8.7 | 0.00 | 0.00 | 0.00 | 78 | 1004.4 |
| 20260505072451 | 73 | 144 | 4.3 | 7.0 | 0.00 | 0.00 | 0.00 | 77 | 1004.3 |
| 20260505071948 | 73 | 187 | 4.3 | 11.3 | 0.00 | 0.00 | 0.00 | 77 | 1004.4 |
| 20260505071444 | 73 | 210 | 6.1 | 7.8 | 0.00 | 0.00 | 0.00 | 77 | 1004.8 |
| 20260505070942 | 74 | 175 | 2.6 | 11.3 | 0.00 | 0.00 | 0.00 | 76 | 1004.7 |
| 20260505070438 | 74 | 193 | 4.3 | 6.1 | 0.00 | 0.00 | 0.00 | 76 | 1004.8 |
| 20260505065934 | 74 | 214 | 4.3 | 7.8 | 0.00 | 0.00 | 0.00 | 75 | 1005.1 |
| 20260505065431 | 74 | 155 | 6.1 | 12.2 | 0.00 | 0.00 | 0.00 | 75 | 1005.2 |
| 20260505064928 | 74 | 196 | 4.3 | 7.8 | 0.00 | 0.00 | 0.00 | 75 | 1005.0 |
| 20260505064425 | 74 | 191 | 3.5 | 7.8 | 0.00 | 0.00 | 0.00 | 74 | 1005.2 |
| 20260505063923 | 74 | 155 | 3.5 | 6.1 | 0.00 | 0.00 | 0.00 | 74 | 1005.1 |
| 20260505063419 | 75 | 137 | 6.1 | 7.8 | 0.00 | 0.00 | 0.00 | 73 | 1005.0 |
| 20260505062916 | 75 | 149 | 4.3 | 8.7 | 0.00 | 0.00 | 0.00 | 73 | 1005.0 |
| 20260505062413 | 75 | 209 | 7.8 | 11.3 | 0.00 | 0.00 | 0.00 | 72 | 1005.0 |
| 20260505061909 | 75 | 144 | 5.2 | 9.6 | 0.00 | 0.00 | 0.00 | 72 | 1005.2 |
| 20260505061408 | 75 | 176 | 4.3 | 9.6 | 0.00 | 0.00 | 0.00 | 72 | 1005.4 |
| 20260505060905 | 75 | 159 | 3.5 | 7.0 | 0.00 | 0.00 | 0.00 | 72 | 1005.2 |
| 20260505060402 | 75 | 132 | 5.2 | 8.7 | 0.00 | 0.00 | 0.00 | 71 | 1005.1 |
| 20260505055858 | 75 | 191 | 2.6 | 7.0 | 0.00 | 0.00 | 0.00 | 71 | 1005.2 |
| 20260505055354 | 75 | 187 | 4.3 | 6.1 | 0.00 | 0.00 | 0.00 | 71 | 1005.1 |
| 20260505054851 | 75 | 140 | 6.1 | 7.0 | 0.00 | 0.00 | 0.00 | 71 | 1004.9 |
| 20260505054348 | 75 | 170 | 2.6 | 5.2 | 0.00 | 0.00 | 0.00 | 71 | 1005.0 |
| 20260505053847 | 75 | 179 | 5.2 | 7.0 | 0.00 | 0.00 | 0.00 | 71 | 1005.2 |
| 20260505053343 | 75 | 175 | 3.5 | 5.2 | 0.00 | 0.00 | 0.00 | 71 | 1005.1 |
| 20260505052840 | 75 | 177 | 3.5 | 7.0 | 0.00 | 0.00 | 0.00 | 70 | 1004.9 |
| 20260505052337 | 75 | 155 | 4.3 | 8.7 | 0.00 | 0.00 | 0.00 | 70 | 1005.1 |
| 20260505051834 | 75 | 174 | 3.5 | 8.7 | 0.00 | 0.00 | 0.00 | 70 | 1005.2 |
| 20260505051331 | 75 | 189 | 3.5 | 6.1 | 0.00 | 0.00 | 0.00 | 70 | 1005.4 |
| 20260505050829 | 75 | 199 | 2.6 | 8.7 | 0.00 | 0.00 | 0.00 | 70 | 1005.2 |
| 20260505050328 | 75 | 211 | 3.5 | 9.6 | 0.00 | 0.00 | 0.00 | 70 | 1005.4 |
| 20260505041757 | 76 | 180 | 4.3 | 7.8 | 0.00 | 0.00 | 0.00 | 68 | 1005.3 |
| 20260505041255 | 76 | 187 | 7.0 | 11.3 | 0.00 | 0.00 | 0.00 | 68 | 1005.3 |
| 20260505040752 | 76 | 112 | 4.3 | 9.6 | 0.00 | 0.00 | 0.00 | 68 | 1005.5 |
| 20260505040249 | 76 | 169 | 9.6 | 13.9 | 0.00 | 0.00 | 0.00 | 67 | 1005.4 |
| 20260505035746 | 76 | 162 | 6.1 | 8.7 | 0.00 | 0.00 | 0.00 | 67 | 1005.4 |
| 20260505035242 | 76 | 122 | 5.2 | 7.8 | 0.00 | 0.00 | 0.00 | 67 | 1005.5 |
| 20260505034739 | 76 | 177 | 3.5 | 7.8 | 0.00 | 0.00 | 0.00 | 67 | 1005.4 |
| 20260505034236 | 76 | 187 | 5.2 | 8.7 | 0.00 | 0.00 | 0.00 | 67 | 1005.3 |
| 20260505033733 | 76 | 200 | 8.7 | 12.2 | 0.00 | 0.00 | 0.00 | 67 | 1005.3 |
| 20260505033230 | 76 | 174 | 5.2 | 13.9 | 0.00 | 0.00 | 0.00 | 66 | 1005.3 |
| 20260505032728 | 76 | 153 | 4.3 | 11.3 | 0.00 | 0.00 | 0.00 | 66 | 1005.3 |
| 20260505032224 | 76 | 142 | 4.3 | 7.0 | 0.00 | 0.00 | 0.00 | 66 | 1005.4 |
| 20260505031721 | 76 | 175 | 6.1 | 11.3 | 0.00 | 0.00 | 0.00 | 66 | 1005.3 |
| 20260505031218 | 76 | 120 | 6.1 | 12.2 | 0.00 | 0.00 | 0.00 | 66 | 1005.6 |
| 20260505030715 | 77 | 179 | 7.8 | 12.2 | 0.00 | 0.00 | 0.00 | 66 | 1005.4 |
| 20260505030211 | 77 | 153 | 7.8 | 11.3 | 0.00 | 0.00 | 0.00 | 66 | 1005.6 |
| 20260505025707 | 77 | 158 | 6.1 | 8.7 | 0.00 | 0.00 | 0.00 | 66 | 1005.5 |
| 20260505025205 | 77 | 191 | 6.1 | 11.3 | 0.00 | 0.00 | 0.00 | 65 | 1005.5 |
| 20260505024703 | 77 | 150 | 5.2 | 12.2 | 0.00 | 0.00 | 0.00 | 65 | 1005.6 |
| 20260505024200 | 77 | 168 | 4.3 | 12.2 | 0.00 | 0.00 | 0.00 | 65 | 1005.2 |
| 20260505023657 | 77 | 160 | 3.5 | 7.8 | 0.00 | 0.00 | 0.00 | 65 | 1005.3 |
| 20260505023154 | 77 | 165 | 4.3 | 8.7 | 0.00 | 0.00 | 0.00 | 65 | 1005.5 |
| 20260505022652 | 77 | 161 | 5.2 | 8.7 | 0.00 | 0.00 | 0.00 | 65 | 1005.5 |
| 20260505022149 | 77 | 191 | 3.5 | 5.2 | 0.00 | 0.00 | 0.00 | 65 | 1005.3 |
| 20260505021645 | 77 | 156 | 4.3 | 11.3 | 0.00 | 0.00 | 0.00 | 64 | 1005.3 |
| 20260505021142 | 77 | 166 | 6.1 | 8.7 | 0.00 | 0.00 | 0.00 | 64 | 1005.4 |
| 20260505020637 | 77 | 138 | 2.6 | 7.8 | 0.00 | 0.00 | 0.00 | 64 | 1005.3 |
| 20260505020134 | 77 | 217 | 7.8 | 9.6 | 0.00 | 0.00 | 0.00 | 64 | 1005.4 |
| 20260505015631 | 77 | 133 | 7.8 | 11.3 | 0.00 | 0.00 | 0.00 | 64 | 1005.2 |
| 20260505015127 | 77 | 116 | 5.2 | 12.2 | 0.00 | 0.00 | 0.00 | 64 | 1005.2 |
| 20260505014624 | 77 | 157 | 4.3 | 6.1 | 0.00 | 0.00 | 0.00 | 64 | 1005.1 |
| 20260505014121 | 77 | 148 | 7.8 | 9.6 | 0.00 | 0.00 | 0.00 | 63 | 1005.2 |
| 20260505013619 | 77 | 189 | 7.8 | 9.6 | 0.00 | 0.00 | 0.00 | 63 | 1005.4 |
| 20260505013116 | 77 | 187 | 4.3 | 7.0 | 0.00 | 0.00 | 0.00 | 63 | 1005.3 |
| 20260505012614 | 77 | 164 | 5.2 | 7.0 | 0.00 | 0.00 | 0.00 | 63 | 1005.2 |
| 20260505012111 | 77 | 180 | 2.6 | 7.8 | 0.00 | 0.00 | 0.00 | 63 | 1005.3 |
| 20260505011606 | 77 | 103 | 6.1 | 8.7 | 0.00 | 0.00 | 0.00 | 63 | 1005.4 |
| 20260505011104 | 78 | 157 | 3.5 | 9.6 | 0.00 | 0.00 | 0.00 | 62 | 1005.2 |
| 20260505010604 | 78 | 141 | 3.5 | 7.8 | 0.00 | 0.00 | 0.00 | 62 | 1005.2 |
| 20260505005557 | 78 | 180 | 9.6 | 14.8 | 0.00 | 0.00 | 0.00 | 61 | 1005.3 |
| 20260505005055 | 78 | 188 | 7.0 | 13.0 | 0.00 | 0.00 | 0.00 | 61 | 1005.0 |